Creedmoor, North Carolina
Current Conditions -  °F | °C
As of 1:51 PM on Friday 21 Nov 2014 (Local Time) from KRDU Reporting Station
Few Clouds Few Clouds  
Wind Chill: 43°   Ceiling: Unl
Heat Index: 47°   Visibility: 10mi
Dew Point:   Wind: 8mph
Humidity: 20%   Direction: 330°NNW
Pressure: 30.43"   Gusts: 16mph
Location:  36.12°N, 78.69°W
Report Text: KRDU 211851Z 33007G14KT 10SM FEW250 08/M14 A3043 RMK AO2 SLP306 T00831139
Loading
Personal Weather Stations






























Interactive Weather Map New forecast layout! Learn more

10-Day Weather Forecast

Advertisements
Track Severe Weather on mobile